createdAt,value
2022-11-16T00:02:18.906Z,18.92
2022-11-16T00:04:46.008Z,19.55
2022-11-16T00:07:12.962Z,20.10
2022-11-16T00:09:39.923Z,20.60
2022-11-16T00:12:09.679Z,20.02
2022-11-16T00:14:36.855Z,19.40
2022-11-16T00:17:04.411Z,19.40
2022-11-16T00:19:31.494Z,18.40
2022-11-16T00:21:58.772Z,19.20
2022-11-16T00:24:25.828Z,19.05
2022-11-16T00:26:54.844Z,19.50
2022-11-16T00:29:26.560Z,18.92
2022-11-16T00:31:54.296Z,18.98
2022-11-16T00:34:22.569Z,18.63
2022-11-16T00:36:49.772Z,18.75
2022-11-16T00:39:17.862Z,18.85
2022-11-16T00:41:46.842Z,19.70
2022-11-16T00:44:13.883Z,18.48
2022-11-16T00:46:41.299Z,18.25
2022-11-16T00:49:08.710Z,18.30
2022-11-16T00:51:36.952Z,18.35
2022-11-16T00:54:05.345Z,19.10
2022-11-16T00:56:35.883Z,17.30
2022-11-16T00:59:03.438Z,18.08
2022-11-16T01:01:30.542Z,17.45
2022-11-16T01:03:57.516Z,16.48
2022-11-16T01:06:24.364Z,16.98
2022-11-16T01:08:51.451Z,17.88
2022-11-16T01:11:37.196Z,17.65
2022-11-16T01:14:06.452Z,18.30
2022-11-16T01:16:33.283Z,17.58
2022-11-16T01:19:00.601Z,17.73
2022-11-16T01:21:28.259Z,18.25
2022-11-16T01:23:57.170Z,18.73
2022-11-16T01:26:24.784Z,17.80
2022-11-16T01:28:52.673Z,17.65
2022-11-16T01:31:20.223Z,18.10
2022-11-16T01:33:49.352Z,18.42
2022-11-16T01:36:25.911Z,17.92
2022-11-16T01:38:54.188Z,17.75
2022-11-16T01:41:26.395Z,17.50
2022-11-16T01:44:07.411Z,17.80
2022-11-16T01:46:48.223Z,17.98
2022-11-16T01:49:20.674Z,17.23
2022-11-16T01:51:53.543Z,18.88
2022-11-16T01:54:21.147Z,18.38
2022-11-16T01:57:00.709Z,17.80
2022-11-16T01:59:38.073Z,18.75
2022-11-16T02:02:07.239Z,18.13
2022-11-16T02:04:35.023Z,17.08
2022-11-16T02:07:28.025Z,17.13
2022-11-16T02:10:30.428Z,17.05
2022-11-16T02:15:49.712Z,16.05
2022-11-16T02:18:35.726Z,17.40
2022-11-16T02:21:24.764Z,16.60
2022-11-16T02:24:26.085Z,17.02
2022-11-16T02:27:11.869Z,17.67
2022-11-16T02:29:47.726Z,18.23
2022-11-16T02:32:31.730Z,17.80
2022-11-16T02:35:13.805Z,18.15
2022-11-16T02:37:48.700Z,17.80
2022-11-16T02:40:20.549Z,17.88
2022-11-16T02:43:17.855Z,18.15
2022-11-16T02:45:49.912Z,16.85
2022-11-16T02:48:24.803Z,17.92
2022-11-16T02:50:53.589Z,17.63
2022-11-16T02:53:22.132Z,17.73
2022-11-16T02:55:49.341Z,18.23
2022-11-16T02:58:26.110Z,18.08
2022-11-16T03:01:30.119Z,18.00
2022-11-16T03:04:11.796Z,18.63
2022-11-16T03:06:41.648Z,17.75
2022-11-16T03:09:17.248Z,17.92
2022-11-16T03:12:02.305Z,19.48
2022-11-16T03:14:38.977Z,18.15
2022-11-16T03:17:14.282Z,18.23
2022-11-16T03:19:51.892Z,18.15
2022-11-16T03:22:30.946Z,18.17
2022-11-16T03:24:57.989Z,17.45
2022-11-16T03:27:30.342Z,19.02
2022-11-16T03:30:05.811Z,18.10
2022-11-16T03:32:34.365Z,18.52
2022-11-16T03:35:21.662Z,18.85
2022-11-16T03:37:52.220Z,18.75
2022-11-16T03:40:23.258Z,18.83
2022-11-16T03:42:51.208Z,18.15
2022-11-16T03:45:18.984Z,19.20
2022-11-16T03:47:46.325Z,18.10
2022-11-16T03:50:15.114Z,17.25
2022-11-16T03:52:43.486Z,17.45
2022-11-16T03:55:12.892Z,17.92
2022-11-16T03:57:40.103Z,18.02
2022-11-16T04:00:08.119Z,17.35
2022-11-16T04:02:41.480Z,18.25
2022-11-16T04:05:31.339Z,17.75
2022-11-16T04:08:17.624Z,18.45
2022-11-16T04:11:03.116Z,16.85
2022-11-16T04:13:52.027Z,16.67
2022-11-16T04:16:37.471Z,18.70
2022-11-16T04:19:27.702Z,18.02
2022-11-16T04:22:25.902Z,17.75
2022-11-16T04:24:58.665Z,18.40
2022-11-16T04:27:48.486Z,18.27
2022-11-16T04:30:16.124Z,19.52
2022-11-16T04:33:02.145Z,20.75
2022-11-16T04:35:47.447Z,19.27
2022-11-16T04:38:14.786Z,19.08
2022-11-16T04:40:41.673Z,19.23
2022-11-16T04:43:11.489Z,18.70
2022-11-16T04:46:00.028Z,21.58
2022-11-16T04:48:34.627Z,19.98
2022-11-16T04:51:02.830Z,24.85
2022-11-16T04:53:30.550Z,26.20
2022-11-16T04:56:07.997Z,22.67
2022-11-16T04:58:35.262Z,21.27
2022-11-16T05:01:02.964Z,25.23
2022-11-16T05:03:29.956Z,24.35
2022-11-16T05:05:56.777Z,24.83
2022-11-16T05:08:25.513Z,23.77
2022-11-16T05:10:53.877Z,24.95
2022-11-16T05:13:20.727Z,24.02
2022-11-16T05:15:49.899Z,24.17
2022-11-16T05:18:17.203Z,24.80
2022-11-16T05:21:02.271Z,26.38
2022-11-16T05:23:52.988Z,26.85
2022-11-16T05:26:22.506Z,28.80
2022-11-16T05:28:50.399Z,25.60
2022-11-16T05:31:17.301Z,26.02
2022-11-16T05:33:44.709Z,31.13
2022-11-16T05:36:12.932Z,31.50
2022-11-16T05:38:39.855Z,27.52
2022-11-16T05:41:06.686Z,25.20
2022-11-16T05:43:33.859Z,24.02
2022-11-16T05:46:11.720Z,23.05
2022-11-16T05:48:39.257Z,23.52
2022-11-16T05:51:07.183Z,22.00
2022-11-16T05:53:34.922Z,21.92
2022-11-16T05:56:02.125Z,21.85
2022-11-16T05:58:30.657Z,21.90
2022-11-16T06:00:59.571Z,21.55
2022-11-16T06:03:29.635Z,21.27
2022-11-16T06:05:58.270Z,22.30
2022-11-16T06:08:27.267Z,22.55
2022-11-16T06:10:56.685Z,22.60
2022-11-16T06:13:23.636Z,20.60
2022-11-16T06:15:55.112Z,21.70
2022-11-16T06:18:22.887Z,20.40
2022-11-16T06:20:50.589Z,20.48
2022-11-16T06:23:20.965Z,19.90
2022-11-16T06:25:52.184Z,18.98
2022-11-16T06:28:19.072Z,21.75
2022-11-16T06:30:46.218Z,21.27
2022-11-16T06:33:13.131Z,21.13
2022-11-16T06:35:40.061Z,19.58
2022-11-16T06:38:08.029Z,18.67
2022-11-16T06:40:35.094Z,16.33
2022-11-16T06:43:03.513Z,15.75
2022-11-16T06:45:30.595Z,17.67
2022-11-16T06:48:00.527Z,16.05
2022-11-16T06:50:27.474Z,17.75
2022-11-16T06:52:55.202Z,17.70
2022-11-16T06:55:23.110Z,17.75
2022-11-16T06:57:49.995Z,18.80
2022-11-16T07:00:17.855Z,18.52
2022-11-16T07:02:46.573Z,21.52
2022-11-16T07:05:17.100Z,21.38
2022-11-16T07:07:45.543Z,20.83
2022-11-16T07:10:13.505Z,19.80
2022-11-16T07:12:41.945Z,20.55
2022-11-16T07:15:09.304Z,21.00
2022-11-16T07:17:39.803Z,21.67
2022-11-16T07:20:07.093Z,31.38
2022-11-16T07:22:33.875Z,31.65
2022-11-16T07:25:00.779Z,24.52
2022-11-16T07:27:27.628Z,21.88
2022-11-16T07:29:54.497Z,25.38
2022-11-16T07:32:33.936Z,23.25
2022-11-16T07:35:03.802Z,22.60
2022-11-16T07:37:31.709Z,23.50
2022-11-16T07:39:58.686Z,22.23
2022-11-16T07:42:25.618Z,22.88
2022-11-16T07:45:08.031Z,23.52
2022-11-16T07:47:39.829Z,23.30
2022-11-16T07:50:11.667Z,22.38
2022-11-16T07:52:38.521Z,23.83
2022-11-16T07:55:08.360Z,22.73
2022-11-16T07:57:35.486Z,22.77
2022-11-16T08:00:06.571Z,22.25
2022-11-16T08:02:47.336Z,23.73
2022-11-16T08:05:18.467Z,22.17
2022-11-16T08:07:46.199Z,23.23
2022-11-16T08:10:13.307Z,23.52
2022-11-16T08:12:40.810Z,24.48
2022-11-16T08:15:08.400Z,23.48
2022-11-16T08:17:35.248Z,23.67
2022-11-16T08:20:04.848Z,23.17
2022-11-16T08:22:31.708Z,23.80
2022-11-16T08:24:58.558Z,25.10
2022-11-16T08:27:26.045Z,26.48
2022-11-16T08:29:56.266Z,27.48
2022-11-16T08:32:23.540Z,28.80
2022-11-16T08:34:50.594Z,28.08
2022-11-16T08:37:17.503Z,27.83
2022-11-16T08:39:45.686Z,28.17
2022-11-16T08:42:12.996Z,29.10
2022-11-16T08:44:44.052Z,30.48
2022-11-16T08:47:14.070Z,29.20
2022-11-16T08:52:45.466Z,32.33
2022-11-16T08:55:13.988Z,33.85
2022-11-16T08:57:42.351Z,33.63
2022-11-16T09:00:12.510Z,32.78
2022-11-16T09:02:39.329Z,34.75
2022-11-16T09:05:08.038Z,33.53
2022-11-16T09:07:34.842Z,33.13
2022-11-16T09:10:01.669Z,30.75
2022-11-16T09:17:39.372Z,31.52
2022-11-16T09:20:06.872Z,30.23
2022-11-16T09:22:33.881Z,32.47
2022-11-16T09:25:00.868Z,29.65
2022-11-16T09:27:27.659Z,31.30
2022-11-16T09:29:54.455Z,30.38
2022-11-16T09:32:21.297Z,32.38
2022-11-16T09:34:48.174Z,30.42
2022-11-16T09:37:15.454Z,30.30
2022-11-16T09:39:42.244Z,29.60
2022-11-16T09:42:46.313Z,29.98
2022-11-16T09:45:41.328Z,30.02
2022-11-16T09:48:12.442Z,29.02
2022-11-16T09:51:02.946Z,30.65
2022-11-16T09:53:40.335Z,28.15
2022-11-16T09:56:17.780Z,26.83
2022-11-16T09:59:01.401Z,25.50
2022-11-16T10:01:47.941Z,25.83
2022-11-16T10:04:20.753Z,25.35
2022-11-16T10:06:58.857Z,24.83
2022-11-16T10:09:26.089Z,24.65
2022-11-16T10:12:05.869Z,24.85
2022-11-16T10:14:50.637Z,25.38
2022-11-16T10:17:31.847Z,23.98
2022-11-16T10:20:39.803Z,23.83
2022-11-16T10:25:50.672Z,23.23
2022-11-16T10:28:26.604Z,22.75
2022-11-16T10:31:19.781Z,23.40
2022-11-16T10:33:51.256Z,22.30
2022-11-16T10:36:21.441Z,22.50
2022-11-16T10:38:48.596Z,23.05
2022-11-16T10:41:21.568Z,23.08
2022-11-16T10:43:48.679Z,22.42
2022-11-16T10:46:19.793Z,21.98
2022-11-16T10:48:58.874Z,22.17
2022-11-16T10:51:25.761Z,22.02
2022-11-16T10:53:53.296Z,24.73
2022-11-16T10:56:28.384Z,23.63
2022-11-16T10:58:56.768Z,23.35
2022-11-16T11:01:59.184Z,23.77
2022-11-16T11:04:31.396Z,23.65
2022-11-16T11:07:16.823Z,22.90
2022-11-16T11:09:43.922Z,22.67
2022-11-16T11:12:40.562Z,23.45
2022-11-16T11:15:25.808Z,21.05
2022-11-16T11:18:19.478Z,22.25
2022-11-16T11:21:15.487Z,23.52
2022-11-16T11:23:50.829Z,23.33
2022-11-16T11:26:37.561Z,22.63
2022-11-16T11:29:22.433Z,23.33
2022-11-16T11:31:53.160Z,23.35
2022-11-16T11:34:46.046Z,24.88
2022-11-16T11:37:17.552Z,21.65
2022-11-16T11:39:45.044Z,21.45
2022-11-16T11:42:15.005Z,20.65
2022-11-16T11:45:00.766Z,20.75
2022-11-16T11:48:14.618Z,20.80
2022-11-16T11:50:57.703Z,20.15
2022-11-16T11:53:27.439Z,19.83
2022-11-16T11:56:00.598Z,21.08
2022-11-16T11:58:34.065Z,19.00
2022-11-16T12:01:25.938Z,19.42
2022-11-16T12:04:05.884Z,18.58
2022-11-16T12:07:15.529Z,20.02
2022-11-16T12:10:29.666Z,19.30
2022-11-16T12:13:20.966Z,18.63
2022-11-16T12:16:11.424Z,20.15
2022-11-16T12:18:49.921Z,18.00
2022-11-16T12:21:36.250Z,17.23
2022-11-16T12:24:43.411Z,19.80
2022-11-16T12:27:40.093Z,18.80
2022-11-16T12:30:07.038Z,18.10
2022-11-16T12:32:45.361Z,18.40
2022-11-16T12:35:37.067Z,17.65
2022-11-16T12:38:29.982Z,17.33
2022-11-16T12:41:21.751Z,16.63
2022-11-16T12:43:59.727Z,17.90
2022-11-16T12:46:47.788Z,19.58
2022-11-16T12:49:24.319Z,18.83
2022-11-16T12:51:59.930Z,18.48
2022-11-16T12:55:23.629Z,19.83
2022-11-16T12:58:01.314Z,19.13
2022-11-16T13:00:32.836Z,18.77
2022-11-16T13:03:13.108Z,19.02
2022-11-16T13:05:42.852Z,19.30
2022-11-16T13:08:23.822Z,19.85
2022-11-16T13:10:57.501Z,20.52
2022-11-16T13:13:38.594Z,20.52
2022-11-16T13:16:07.027Z,20.33
2022-11-16T13:18:37.812Z,21.50
2022-11-16T13:21:15.937Z,20.65
2022-11-16T13:23:48.726Z,21.88
2022-11-16T13:26:21.432Z,20.92
2022-11-16T13:29:04.057Z,21.17
2022-11-16T13:31:36.799Z,21.55
2022-11-16T13:34:11.904Z,20.83
2022-11-16T13:36:43.778Z,21.48
2022-11-16T13:39:18.688Z,22.52
2022-11-16T13:44:33.685Z,20.40
2022-11-16T13:47:06.253Z,21.65
2022-11-16T13:49:36.747Z,21.90
2022-11-16T13:52:23.300Z,21.73
2022-11-16T13:54:54.678Z,21.77
2022-11-16T13:57:26.077Z,20.95
2022-11-16T14:00:02.240Z,21.52
2022-11-16T14:05:01.430Z,22.98
2022-11-16T14:07:47.205Z,21.75
2022-11-16T14:10:36.037Z,22.27
2022-11-16T14:13:04.574Z,21.77
2022-11-16T14:15:38.756Z,21.42
2022-11-16T14:18:09.308Z,24.83
2022-11-16T14:20:51.449Z,25.48
2022-11-16T14:23:29.265Z,30.63
2022-11-16T14:26:14.731Z,29.10
2022-11-16T14:29:09.100Z,30.58
2022-11-16T14:31:59.583Z,29.52
2022-11-16T14:34:44.782Z,27.58
2022-11-16T14:37:28.520Z,25.70
2022-11-16T14:40:15.886Z,28.50
2022-11-16T14:43:15.533Z,29.50
2022-11-16T14:45:39.202Z,30.67
2022-11-16T14:48:15.411Z,42.05
2022-11-16T14:50:46.874Z,42.33
2022-11-16T14:53:19.685Z,34.58
2022-11-16T14:55:46.534Z,31.80
2022-11-16T14:58:22.144Z,30.35
2022-11-16T15:00:59.080Z,32.63
2022-11-16T15:03:30.118Z,35.47
2022-11-16T15:06:02.454Z,36.03
2022-11-16T15:08:54.519Z,32.05
2022-11-16T15:11:51.631Z,31.08
2022-11-16T15:14:21.538Z,31.75
2022-11-16T15:16:55.697Z,28.83
2022-11-16T15:19:24.295Z,29.52
2022-11-16T15:22:02.588Z,32.53
2022-11-16T15:24:34.471Z,32.00
2022-11-16T15:27:11.700Z,71.57
2022-11-16T15:29:39.133Z,75.15
2022-11-16T15:32:12.996Z,60.65
2022-11-16T15:34:40.924Z,56.45
2022-11-16T15:37:11.855Z,54.25
2022-11-16T15:39:39.664Z,54.05
2022-11-16T15:42:08.180Z,55.67
2022-11-16T15:44:35.256Z,63.55
2022-11-16T15:47:03.335Z,47.58
2022-11-16T15:49:33.841Z,42.92
2022-11-16T15:52:01.275Z,39.15
2022-11-16T15:54:31.153Z,34.95
2022-11-16T15:57:12.484Z,30.80
2022-11-16T15:59:39.837Z,34.28
2022-11-16T16:02:17.607Z,32.78
2022-11-16T16:04:44.444Z,37.05
2022-11-16T16:07:11.346Z,44.15
2022-11-16T16:09:40.495Z,49.63
2022-11-16T16:12:19.387Z,45.90
2022-11-16T16:14:49.152Z,45.50
2022-11-16T16:17:27.953Z,44.38
2022-11-16T16:19:58.928Z,42.97
2022-11-16T16:22:33.116Z,37.35
2022-11-16T16:25:01.605Z,36.92
2022-11-16T16:27:30.084Z,34.85
2022-11-16T16:29:58.351Z,31.98
2022-11-16T16:32:26.628Z,28.73
2022-11-16T16:34:55.076Z,27.77
2022-11-16T16:37:22.522Z,30.63
2022-11-16T16:39:49.380Z,32.25
2022-11-16T16:42:17.041Z,36.60
2022-11-16T16:44:45.450Z,36.03
2022-11-16T16:47:12.656Z,32.80
2022-11-16T16:49:39.751Z,40.05
2022-11-16T16:52:07.750Z,41.25
2022-11-16T16:54:34.626Z,36.92
2022-11-16T16:57:02.493Z,41.08
2022-11-16T16:59:32.704Z,38.28
2022-11-16T17:01:59.912Z,37.60
2022-11-16T17:04:26.847Z,37.65
2022-11-16T17:06:54.464Z,35.50
2022-11-16T17:09:21.368Z,43.30
2022-11-16T17:11:48.436Z,52.58
2022-11-16T17:14:15.344Z,53.17
2022-11-16T17:16:42.290Z,53.83
2022-11-16T17:19:09.144Z,58.17
2022-11-16T17:21:35.940Z,55.28
2022-11-16T17:24:02.815Z,65.47
2022-11-16T17:26:29.715Z,77.93
2022-11-16T17:28:57.938Z,80.82
2022-11-16T17:31:26.115Z,105.57
2022-11-16T17:33:52.975Z,99.75
2022-11-16T17:36:20.127Z,113.95
2022-11-16T17:38:47.144Z,207.85
2022-11-16T17:41:19.258Z,162.95
2022-11-16T17:46:16.330Z,92.10
2022-11-16T17:48:45.474Z,67.47
2022-11-16T17:51:13.730Z,75.22
2022-11-16T17:53:40.954Z,73.30
2022-11-16T17:56:08.392Z,91.18
2022-11-16T17:58:35.258Z,63.90
2022-11-16T18:01:02.115Z,59.75
2022-11-16T18:03:29.074Z,60.70
2022-11-16T18:06:11.127Z,70.78
2022-11-16T18:08:38.145Z,62.80
2022-11-16T18:11:13.743Z,69.38
2022-11-16T18:13:40.965Z,44.80
2022-11-16T18:16:14.066Z,60.38
2022-11-16T18:18:42.005Z,54.70
2022-11-16T18:21:09.882Z,42.13
2022-11-16T18:23:38.104Z,32.25
2022-11-16T18:26:14.509Z,27.60
2022-11-16T18:28:43.994Z,29.30
2022-11-16T18:31:13.997Z,34.58
2022-11-16T18:33:40.883Z,34.30
2022-11-16T18:36:08.691Z,34.60
2022-11-16T18:38:36.530Z,33.65
2022-11-16T18:41:12.281Z,35.47
2022-11-16T18:43:48.404Z,64.38
2022-11-16T18:46:15.481Z,62.55
2022-11-16T18:48:43.507Z,45.85
2022-11-16T18:51:11.286Z,40.72
2022-11-16T18:53:38.528Z,44.42
2022-11-16T18:56:06.069Z,48.72
2022-11-16T18:58:49.941Z,51.13
2022-11-16T19:01:19.341Z,47.92
2022-11-16T19:03:46.355Z,49.13
2022-11-16T19:06:14.958Z,47.53
2022-11-16T19:08:42.933Z,40.65
2022-11-16T19:11:12.877Z,38.08
2022-11-16T19:13:41.572Z,40.53
2022-11-16T19:16:09.803Z,37.25
2022-11-16T19:18:37.303Z,36.35
2022-11-16T19:21:06.285Z,31.80
2022-11-16T19:23:44.531Z,29.55
2022-11-16T19:26:13.415Z,29.92
2022-11-16T19:28:42.540Z,29.60
2022-11-16T19:31:17.072Z,29.80
2022-11-16T19:33:44.635Z,31.55
2022-11-16T19:36:19.009Z,28.90
2022-11-16T19:38:47.415Z,27.25
2022-11-16T19:41:15.882Z,26.23
2022-11-16T19:43:42.817Z,28.98
2022-11-16T19:46:11.812Z,27.40
2022-11-16T19:48:39.265Z,29.35
2022-11-16T19:51:15.460Z,27.35
2022-11-16T19:53:42.606Z,29.30
2022-11-16T19:56:12.202Z,30.30
2022-11-16T19:58:39.117Z,31.00
2022-11-16T20:01:09.910Z,28.58
2022-11-16T20:03:40.573Z,34.70
2022-11-16T20:06:11.105Z,36.05
2022-11-16T20:08:39.510Z,36.17
2022-11-16T20:11:20.337Z,37.33
2022-11-16T20:13:48.435Z,25.63
2022-11-16T20:16:16.454Z,27.08
2022-11-16T20:18:44.555Z,27.17
2022-11-16T20:21:34.687Z,24.45
2022-11-16T20:24:06.707Z,23.13
2022-11-16T20:26:36.935Z,25.17
2022-11-16T20:29:04.082Z,23.90
2022-11-16T20:31:32.762Z,23.60
2022-11-16T20:34:04.985Z,24.65
2022-11-16T20:36:33.490Z,23.77
2022-11-16T20:39:00.645Z,22.67
2022-11-16T20:41:32.347Z,24.35
2022-11-16T20:44:01.590Z,23.95
2022-11-16T20:46:30.966Z,23.67
2022-11-16T20:48:59.510Z,23.02
2022-11-16T20:51:27.800Z,24.35
2022-11-16T20:53:54.692Z,25.40
2022-11-16T20:56:21.959Z,29.58
2022-11-16T20:58:49.691Z,28.38
2022-11-16T21:01:17.850Z,28.95
2022-11-16T21:03:44.857Z,25.90
2022-11-16T21:06:15.481Z,25.45
2022-11-16T21:08:42.652Z,24.38
2022-11-16T21:11:25.088Z,23.90
2022-11-16T21:14:11.192Z,23.40
2022-11-16T21:16:38.948Z,22.60
2022-11-16T21:19:06.149Z,22.20
2022-11-16T21:21:33.604Z,23.48
2022-11-16T21:24:00.688Z,23.00
2022-11-16T21:26:29.779Z,23.38
2022-11-16T21:28:57.884Z,23.42
2022-11-16T21:31:27.568Z,22.58
2022-11-16T21:33:54.931Z,23.88
2022-11-16T21:36:24.765Z,22.80
2022-11-16T21:38:52.580Z,23.50
2022-11-16T21:41:21.326Z,23.42
2022-11-16T21:43:48.421Z,23.10
2022-11-16T21:46:24.962Z,24.38
2022-11-16T21:48:53.865Z,23.80
2022-11-16T21:51:22.585Z,23.08
2022-11-16T21:53:49.446Z,23.55
2022-11-16T21:56:19.455Z,23.45
2022-11-16T21:58:46.928Z,23.10
2022-11-16T22:01:16.147Z,23.77
2022-11-16T22:03:44.807Z,23.00
2022-11-16T22:06:34.655Z,23.45
2022-11-16T22:09:01.962Z,23.60
2022-11-16T22:11:29.060Z,22.50
2022-11-16T22:13:55.880Z,23.08
2022-11-16T22:16:23.571Z,22.75
2022-11-16T22:18:50.912Z,23.83
2022-11-16T22:21:17.780Z,22.13
2022-11-16T22:23:44.691Z,22.17
2022-11-16T22:26:13.072Z,22.17
2022-11-16T22:28:40.373Z,21.02
2022-11-16T22:31:14.933Z,24.20
2022-11-16T22:33:42.500Z,22.70
2022-11-16T22:36:10.839Z,21.80
2022-11-16T22:38:38.183Z,21.70
2022-11-16T22:41:05.440Z,22.10
2022-11-16T22:43:33.137Z,21.90
2022-11-16T22:46:05.573Z,22.95
2022-11-16T22:51:27.856Z,21.08
2022-11-16T22:53:56.182Z,19.35
2022-11-16T22:56:23.833Z,22.63
2022-11-16T22:58:51.145Z,21.48
2022-11-16T23:01:18.276Z,22.40
2022-11-16T23:03:45.189Z,23.25
2022-11-16T23:06:12.019Z,23.23
2022-11-16T23:08:40.183Z,23.13
2022-11-16T23:11:27.330Z,22.40
2022-11-16T23:14:12.895Z,22.00
2022-11-16T23:16:40.930Z,23.85
2022-11-16T23:19:27.967Z,22.85
2022-11-16T23:22:14.632Z,25.23
2022-11-16T23:25:00.335Z,29.52
2022-11-16T23:27:37.407Z,28.60
2022-11-16T23:30:12.140Z,23.50
2022-11-16T23:32:40.404Z,23.58
2022-11-16T23:35:07.909Z,24.75
2022-11-16T23:37:35.040Z,24.63
2022-11-16T23:40:01.850Z,24.73
2022-11-16T23:42:48.226Z,24.55
2022-11-16T23:45:15.438Z,24.00
2022-11-16T23:47:42.625Z,23.48
2022-11-16T23:50:09.641Z,23.83
2022-11-16T23:52:36.461Z,23.27
2022-11-16T23:55:03.364Z,23.58
2022-11-16T23:57:30.135Z,23.98
2022-11-16T23:59:56.949Z,22.75
